createdAt,value
2016-07-15T00:00:15.548Z,12.5
2016-07-15T00:15:12.808Z,12.4
2016-07-15T00:30:15.030Z,12.3
2016-07-15T00:45:08.620Z,12.3
2016-07-15T01:00:04.620Z,12.2
2016-07-15T01:15:04.669Z,12.2
2016-07-15T01:30:06.640Z,12.2
2016-07-15T01:45:04.639Z,12.2
2016-07-15T02:00:06.636Z,12.2
2016-07-15T02:15:10.923Z,12
2016-07-15T02:30:10.862Z,11.9
2016-07-15T02:45:04.654Z,11.7
2016-07-15T03:00:09.246Z,11.5
2016-07-15T03:15:09.249Z,11.5
2016-07-15T03:30:04.691Z,11.5
2016-07-15T03:45:04.664Z,11.5
2016-07-15T04:00:21.816Z,11.5
2016-07-15T04:15:09.265Z,11.6
2016-07-15T04:30:06.813Z,11.6
2016-07-15T04:45:09.289Z,11.6
2016-07-15T05:00:04.699Z,11.6
2016-07-15T05:15:10.909Z,11.7
2016-07-15T05:30:09.338Z,11.8
2016-07-15T05:45:10.906Z,11.9
2016-07-15T06:00:10.937Z,12
2016-07-15T06:15:04.712Z,12.2
2016-07-15T06:30:04.717Z,12.4
2016-07-15T06:45:06.798Z,12.7
2016-07-15T07:00:09.307Z,12.6
2016-07-15T07:15:09.331Z,12.5
2016-07-15T07:30:09.345Z,12.6
2016-07-15T07:45:09.568Z,12.5
2016-07-15T08:00:09.735Z,12.7
2016-07-15T08:15:04.757Z,12.8
2016-07-15T08:30:16.109Z,12.7
2016-07-15T08:45:04.755Z,13
2016-07-15T09:00:04.808Z,13.6
2016-07-15T09:15:09.493Z,14.1
2016-07-15T09:30:13.362Z,14.3
2016-07-15T09:45:09.362Z,14.4
2016-07-15T10:00:09.855Z,14.7
2016-07-15T10:15:11.011Z,15.2
2016-07-15T10:30:17.822Z,15.4
2016-07-15T10:45:04.787Z,15.6
2016-07-15T11:00:11.136Z,15.1
2016-07-15T11:15:11.114Z,14.8
2016-07-15T11:30:09.397Z,14.9
2016-07-15T11:45:19.335Z,14.8
2016-07-15T12:00:11.026Z,14.6
2016-07-15T12:15:09.556Z,14.9
2016-07-15T12:30:09.864Z,15.3
2016-07-15T12:45:09.846Z,15.7
2016-07-15T13:00:11.043Z,16
2016-07-15T13:15:09.880Z,16.4
2016-07-15T13:30:09.395Z,16.6
2016-07-15T13:45:09.410Z,16.1
2016-07-15T14:00:10.365Z,16.6
2016-07-15T14:15:09.463Z,16.8
2016-07-15T14:30:10.237Z,16.5
2016-07-15T14:45:09.804Z,16.8
2016-07-15T15:00:09.429Z,16.8
2016-07-15T15:15:16.145Z,17.1
2016-07-15T15:30:11.148Z,17.4
2016-07-15T15:45:11.156Z,17.2
2016-07-15T16:00:09.461Z,17.9
2016-07-15T16:15:04.877Z,18.2
2016-07-15T16:30:04.902Z,18.3
2016-07-15T16:45:04.874Z,17.7
2016-07-15T17:00:04.866Z,17.6
2016-07-15T17:15:11.118Z,17.5
2016-07-15T17:30:06.992Z,17.7
2016-07-15T17:45:09.491Z,17.7
2016-07-15T18:00:15.611Z,17.4
2016-07-15T18:15:04.882Z,17.3
2016-07-15T18:30:04.920Z,17.2
2016-07-15T18:45:09.516Z,16.9
2016-07-15T19:00:09.340Z,16.7
2016-07-15T19:15:09.498Z,16.5
2016-07-15T19:30:09.543Z,15.9
2016-07-15T19:45:09.528Z,15.2
2016-07-15T20:00:08.690Z,14.8
2016-07-15T20:15:09.552Z,14.4
2016-07-15T20:30:07.032Z,14.1
2016-07-15T20:45:07.075Z,14
2016-07-15T21:00:13.198Z,13.9
2016-07-15T21:15:04.951Z,13.7
2016-07-15T21:30:11.145Z,13.5
2016-07-15T21:45:09.584Z,13.4
2016-07-15T22:00:04.934Z,13.2
2016-07-15T22:15:04.982Z,13.3
2016-07-15T22:30:22.065Z,13.5
2016-07-15T22:45:11.195Z,13.6
2016-07-15T23:00:04.935Z,13.5
2016-07-15T23:15:09.579Z,13.2
2016-07-15T23:30:09.546Z,13.1
2016-07-15T23:45:04.943Z,13
